createdAt,value
2022-11-25T00:00:52.862Z,55.10
2022-11-25T00:03:44.442Z,55.24
2022-11-25T00:06:36.077Z,55.33
2022-11-25T00:09:26.545Z,55.39
2022-11-25T00:12:16.606Z,55.38
2022-11-25T00:15:06.880Z,55.48
2022-11-25T00:17:56.931Z,55.56
2022-11-25T00:20:46.374Z,55.63
2022-11-25T00:23:36.472Z,55.69
2022-11-25T00:26:27.887Z,55.74
2022-11-25T00:29:17.665Z,55.89
2022-11-25T00:32:07.738Z,55.94
2022-11-25T00:34:57.583Z,55.96
2022-11-25T00:37:47.909Z,55.96
2022-11-25T00:40:38.280Z,56.01
2022-11-25T00:43:45.914Z,56.12
2022-11-25T00:46:35.806Z,56.21
2022-11-25T00:49:27.632Z,56.25
2022-11-25T00:52:19.431Z,56.26
2022-11-25T00:55:11.683Z,56.32
2022-11-25T00:58:01.570Z,56.35
2022-11-25T01:00:51.911Z,56.41
2022-11-25T01:03:44.514Z,56.51
2022-11-25T01:06:36.238Z,56.56
2022-11-25T01:09:26.479Z,56.68
2022-11-25T01:12:17.216Z,56.72
2022-11-25T01:15:09.288Z,56.74
2022-11-25T01:17:59.394Z,56.85
2022-11-25T01:20:49.132Z,56.91
2022-11-25T01:23:39.305Z,57.00
2022-11-25T01:26:30.124Z,56.98
2022-11-25T01:29:20.983Z,56.96
2022-11-25T01:32:10.506Z,57.08
2022-11-25T01:35:02.033Z,57.05
2022-11-25T01:37:54.804Z,57.22
2022-11-25T01:40:48.062Z,57.24
2022-11-25T01:43:38.958Z,57.17
2022-11-25T01:46:33.155Z,57.24
2022-11-25T01:49:28.918Z,57.30
2022-11-25T01:52:23.725Z,57.46
2022-11-25T01:55:17.564Z,57.52
2022-11-25T01:58:11.693Z,57.56
2022-11-25T02:01:03.062Z,57.54
2022-11-25T02:03:58.455Z,57.62
2022-11-25T02:06:54.382Z,57.63
2022-11-25T02:09:47.527Z,57.76
2022-11-25T02:12:40.688Z,57.75
2022-11-25T02:15:35.061Z,57.78
2022-11-25T02:18:29.031Z,57.81
2022-11-25T02:21:26.221Z,57.94
2022-11-25T02:24:22.168Z,58.04
2022-11-25T02:27:13.089Z,58.03
2022-11-25T02:30:05.735Z,58.11
2022-11-25T02:32:56.261Z,58.04
2022-11-25T02:35:51.372Z,58.07
2022-11-25T02:38:44.805Z,58.11
2022-11-25T02:41:38.098Z,58.14
2022-11-25T02:44:29.106Z,58.09
2022-11-25T02:47:19.090Z,58.05
2022-11-25T02:50:10.894Z,57.97
2022-11-25T02:53:01.419Z,58.09
2022-11-25T02:55:51.596Z,58.01
2022-11-25T02:58:41.590Z,57.99
2022-11-25T03:01:32.711Z,58.08
2022-11-25T03:04:23.204Z,58.06
2022-11-25T03:07:13.244Z,58.03
2022-11-25T03:10:03.607Z,58.19
2022-11-25T03:12:56.637Z,58.24
2022-11-25T03:15:46.722Z,58.26
2022-11-25T03:18:37.258Z,58.35
2022-11-25T03:21:28.069Z,58.29
2022-11-25T03:24:17.835Z,58.29
2022-11-25T03:27:11.183Z,58.24
2022-11-25T03:30:01.737Z,58.23
2022-11-25T03:32:53.025Z,58.24
2022-11-25T03:35:42.884Z,58.25
2022-11-25T03:38:32.737Z,58.34
2022-11-25T03:41:22.392Z,58.33
2022-11-25T03:44:14.077Z,58.32
2022-11-25T03:47:05.803Z,58.26
2022-11-25T03:49:56.699Z,58.30
2022-11-25T03:52:47.065Z,58.35
2022-11-25T03:55:36.947Z,58.33
2022-11-25T03:58:27.353Z,58.39
2022-11-25T04:01:17.847Z,58.43
2022-11-25T04:04:08.486Z,58.35
2022-11-25T04:06:58.595Z,58.32
2022-11-25T04:09:49.232Z,58.42
2022-11-25T04:12:50.186Z,58.43
2022-11-25T04:15:47.995Z,58.33
2022-11-25T04:18:39.092Z,58.21
2022-11-25T04:21:29.709Z,58.14
2022-11-25T04:24:20.349Z,58.12
2022-11-25T04:27:11.269Z,58.08
2022-11-25T04:30:02.127Z,58.02
2022-11-25T04:32:53.052Z,58.09
2022-11-25T04:35:43.116Z,58.05
2022-11-25T04:38:34.046Z,58.09
2022-11-25T04:41:25.258Z,58.05
2022-11-25T04:44:15.715Z,58.09
2022-11-25T04:47:05.887Z,58.07
2022-11-25T04:49:55.924Z,58.08
2022-11-25T04:52:46.437Z,58.12
2022-11-25T04:55:36.628Z,58.08
2022-11-25T04:58:46.661Z,58.11
2022-11-25T05:01:37.255Z,58.04
2022-11-25T05:04:35.326Z,57.96
2022-11-25T05:07:28.049Z,57.83
2022-11-25T05:10:20.043Z,57.87
2022-11-25T05:13:11.864Z,57.76
2022-11-25T05:16:03.111Z,57.68
2022-11-25T05:18:53.317Z,57.62
2022-11-25T05:21:44.379Z,57.53
2022-11-25T05:24:35.215Z,57.53
2022-11-25T05:27:28.140Z,57.58
2022-11-25T05:30:20.359Z,57.61
2022-11-25T05:33:10.610Z,57.59
2022-11-25T05:36:04.386Z,57.50
2022-11-25T05:39:00.794Z,57.37
2022-11-25T05:42:01.904Z,57.23
2022-11-25T05:44:52.425Z,57.11
2022-11-25T05:47:42.901Z,57.06
2022-11-25T05:50:33.514Z,57.03
2022-11-25T05:53:27.638Z,56.92
2022-11-25T05:56:17.723Z,56.90
2022-11-25T05:59:21.428Z,56.85
2022-11-25T06:02:31.467Z,56.80
2022-11-25T06:05:22.460Z,56.75
2022-11-25T06:08:14.356Z,56.73
2022-11-25T06:11:07.729Z,56.53
2022-11-25T06:13:59.047Z,56.58
2022-11-25T06:16:49.576Z,56.60
2022-11-25T06:19:46.401Z,57.17
2022-11-25T06:22:37.110Z,56.89
2022-11-25T06:25:28.161Z,56.71
2022-11-25T06:28:19.124Z,56.46
2022-11-25T06:31:13.831Z,56.49
2022-11-25T06:34:12.295Z,56.37
2022-11-25T06:37:03.688Z,55.89
2022-11-25T06:39:54.113Z,55.82
2022-11-25T06:42:44.817Z,55.14
2022-11-25T06:45:35.365Z,54.48
2022-11-25T06:48:25.568Z,54.27
2022-11-25T06:51:17.272Z,54.08
2022-11-25T06:54:08.712Z,53.36
2022-11-25T06:56:58.770Z,53.35
2022-11-25T06:59:49.251Z,52.77
2022-11-25T07:02:43.011Z,52.54
2022-11-25T07:05:37.385Z,52.33
2022-11-25T07:08:32.430Z,52.22
2022-11-25T07:11:26.458Z,52.33
2022-11-25T07:14:18.346Z,52.34
2022-11-25T07:17:12.036Z,52.26
2022-11-25T07:20:02.606Z,52.04
2022-11-25T07:22:53.432Z,51.97
2022-11-25T07:25:43.806Z,51.80
2022-11-25T07:28:33.855Z,51.51
2022-11-25T07:31:31.017Z,49.84
2022-11-25T07:34:23.549Z,49.54
2022-11-25T07:37:14.045Z,49.68
2022-11-25T07:40:05.170Z,49.82
2022-11-25T07:42:56.283Z,49.71
2022-11-25T07:45:48.260Z,49.44
2022-11-25T07:48:38.670Z,48.90
2022-11-25T07:51:30.558Z,48.39
2022-11-25T07:54:20.772Z,48.14
2022-11-25T07:57:10.935Z,47.80
2022-11-25T08:00:01.824Z,47.44
2022-11-25T08:03:02.178Z,47.25
2022-11-25T08:05:52.256Z,46.59
2022-11-25T08:08:44.598Z,46.27
2022-11-25T08:11:36.102Z,45.81
2022-11-25T08:14:25.934Z,45.28
2022-11-25T08:17:16.304Z,45.04
2022-11-25T08:20:08.444Z,44.44
2022-11-25T08:22:58.688Z,43.79
2022-11-25T08:25:50.670Z,43.21
2022-11-25T08:28:42.395Z,42.09
2022-11-25T08:31:34.408Z,41.10
2022-11-25T08:34:25.907Z,40.59
2022-11-25T08:37:20.064Z,40.05
2022-11-25T08:40:12.764Z,39.69
2022-11-25T08:43:02.627Z,39.59
2022-11-25T08:45:53.168Z,39.05
2022-11-25T08:48:43.386Z,38.92
2022-11-25T08:51:36.303Z,38.97
2022-11-25T08:54:26.510Z,38.80
2022-11-25T08:57:16.946Z,38.37
2022-11-25T09:00:09.161Z,38.05
2022-11-25T09:02:59.451Z,38.23
2022-11-25T09:05:51.252Z,37.84
2022-11-25T09:08:42.544Z,37.70
2022-11-25T09:11:32.749Z,37.63
2022-11-25T09:14:23.013Z,37.60
2022-11-25T09:17:15.628Z,37.19
2022-11-25T09:20:06.754Z,36.73
2022-11-25T09:22:57.135Z,36.47
2022-11-25T09:25:54.504Z,36.34
2022-11-25T09:28:44.783Z,36.19
2022-11-25T09:31:34.925Z,36.12
2022-11-25T09:34:24.804Z,36.02
2022-11-25T09:37:16.434Z,35.89
2022-11-25T09:40:08.854Z,35.88
2022-11-25T09:43:23.285Z,36.16
2022-11-25T09:46:46.535Z,36.11
2022-11-25T09:49:58.650Z,36.09
2022-11-25T09:52:57.848Z,36.11
2022-11-25T09:55:55.882Z,36.16
2022-11-25T09:58:53.473Z,36.08
2022-11-25T10:01:51.146Z,35.84
2022-11-25T10:04:49.764Z,35.39
2022-11-25T10:07:44.658Z,35.02
2022-11-25T10:10:42.735Z,34.98
2022-11-25T10:13:48.611Z,34.99
2022-11-25T10:16:51.261Z,34.95
2022-11-25T10:19:54.958Z,34.82
2022-11-25T10:22:47.620Z,34.70
2022-11-25T10:25:42.860Z,34.76
2022-11-25T10:28:36.689Z,34.67
2022-11-25T10:31:30.679Z,34.62
2022-11-25T10:34:31.306Z,34.69
2022-11-25T10:37:27.953Z,34.71
2022-11-25T10:40:19.582Z,34.60
2022-11-25T10:43:15.019Z,34.99
2022-11-25T10:46:16.433Z,35.84
2022-11-25T10:49:16.080Z,36.31
2022-11-25T10:52:14.065Z,36.55
2022-11-25T10:55:13.446Z,37.37
2022-11-25T10:58:21.903Z,37.20
2022-11-25T11:01:23.084Z,36.95
2022-11-25T11:04:18.528Z,37.16
2022-11-25T11:07:15.463Z,37.73
2022-11-25T11:10:21.804Z,38.11
2022-11-25T11:13:25.321Z,38.12
2022-11-25T11:16:32.075Z,37.82
2022-11-25T11:19:27.501Z,37.65
2022-11-25T11:22:27.600Z,37.65
2022-11-25T11:25:28.672Z,37.85
2022-11-25T11:28:41.388Z,37.67
2022-11-25T11:31:36.783Z,37.43
2022-11-25T11:34:59.753Z,36.96
2022-11-25T11:37:54.188Z,37.41
2022-11-25T11:40:51.048Z,37.47
2022-11-25T11:43:58.640Z,37.14
2022-11-25T11:47:06.813Z,37.04
2022-11-25T11:50:22.239Z,37.00
2022-11-25T11:53:22.887Z,36.69
2022-11-25T11:59:50.150Z,36.44
2022-11-25T12:02:56.884Z,36.13
2022-11-25T12:05:54.075Z,35.95
2022-11-25T12:08:52.106Z,35.68
2022-11-25T12:11:47.254Z,35.68
2022-11-25T12:14:44.453Z,35.71
2022-11-25T12:17:42.012Z,35.67
2022-11-25T12:20:40.170Z,35.53
2022-11-25T12:23:41.856Z,35.47
2022-11-25T12:26:36.297Z,35.61
2022-11-25T12:29:34.950Z,35.67
2022-11-25T12:32:46.848Z,35.76
2022-11-25T12:35:47.452Z,35.86
2022-11-25T12:38:44.276Z,35.84
2022-11-25T12:41:42.358Z,35.66
2022-11-25T12:44:37.236Z,35.75
2022-11-25T12:47:28.509Z,35.55
2022-11-25T12:50:22.170Z,35.28
2022-11-25T12:53:17.696Z,35.11
2022-11-25T12:56:17.769Z,35.14
2022-11-25T12:59:29.388Z,35.08
2022-11-25T13:02:41.565Z,35.22
2022-11-25T13:06:00.354Z,35.36
2022-11-25T13:09:01.676Z,35.42
2022-11-25T13:12:13.321Z,35.46
2022-11-25T13:15:21.398Z,35.68
2022-11-25T13:18:15.759Z,35.66
2022-11-25T13:21:13.901Z,35.46
2022-11-25T13:24:04.740Z,35.61
2022-11-25T13:26:55.006Z,35.65
2022-11-25T13:30:04.819Z,35.59
2022-11-25T13:32:55.759Z,35.36
2022-11-25T13:35:58.299Z,35.54
2022-11-25T13:39:14.292Z,35.88
2022-11-25T13:42:14.913Z,36.00
2022-11-25T13:45:06.069Z,35.54
2022-11-25T13:48:04.974Z,35.33
2022-11-25T13:51:17.397Z,35.25
2022-11-25T13:54:18.543Z,35.13
2022-11-25T13:57:28.805Z,35.17
2022-11-25T14:00:49.168Z,35.15
2022-11-25T14:03:51.300Z,35.26
2022-11-25T14:06:58.018Z,35.12
2022-11-25T14:10:22.696Z,34.99
2022-11-25T14:13:28.256Z,35.02
2022-11-25T14:16:34.767Z,34.85
2022-11-25T14:19:51.539Z,34.91
2022-11-25T14:23:09.164Z,34.87
2022-11-25T14:26:11.662Z,34.68
2022-11-25T14:29:19.065Z,34.72
2022-11-25T14:32:14.616Z,34.57
2022-11-25T14:35:10.153Z,34.59
2022-11-25T14:38:05.905Z,34.63
2022-11-25T14:41:01.765Z,34.68
2022-11-25T14:43:55.406Z,34.71
2022-11-25T14:46:55.415Z,34.95
2022-11-25T14:50:05.672Z,35.09
2022-11-25T14:53:06.112Z,35.31
2022-11-25T14:56:00.237Z,35.50
2022-11-25T14:58:52.806Z,35.47
2022-11-25T15:01:55.144Z,35.63
2022-11-25T15:04:46.083Z,35.69
2022-11-25T15:07:36.328Z,35.81
2022-11-25T15:10:34.914Z,36.01
2022-11-25T15:13:34.416Z,36.23
2022-11-25T15:16:27.397Z,36.43
2022-11-25T15:19:21.251Z,36.78
2022-11-25T15:22:24.757Z,37.29
2022-11-25T15:25:18.953Z,37.57
2022-11-25T15:28:18.720Z,37.48
2022-11-25T15:31:17.327Z,37.53
2022-11-25T15:34:12.579Z,37.64
2022-11-25T15:37:05.609Z,37.69
2022-11-25T15:40:40.779Z,37.93
2022-11-25T15:43:33.240Z,38.27
2022-11-25T15:46:25.153Z,38.48
2022-11-25T15:49:20.797Z,38.66
2022-11-25T15:52:17.125Z,38.88
2022-11-25T15:55:20.009Z,38.87
2022-11-25T15:58:15.191Z,38.73
2022-11-25T16:01:07.535Z,38.75
2022-11-25T16:04:17.574Z,38.69
2022-11-25T16:07:24.066Z,38.64
2022-11-25T16:10:22.135Z,38.75
2022-11-25T16:13:38.458Z,39.04
2022-11-25T16:16:33.775Z,39.01
2022-11-25T16:19:31.607Z,38.91
2022-11-25T16:22:24.613Z,38.79
2022-11-25T16:25:17.883Z,38.93
2022-11-25T16:28:17.764Z,38.76
2022-11-25T16:31:07.851Z,38.71
2022-11-25T16:34:00.934Z,38.73
2022-11-25T16:36:51.339Z,38.81
2022-11-25T16:39:41.596Z,38.84
2022-11-25T16:42:31.963Z,38.79
2022-11-25T16:45:24.789Z,38.89
2022-11-25T16:48:19.526Z,39.13
2022-11-25T16:51:15.563Z,39.05
2022-11-25T16:54:06.095Z,38.98
2022-11-25T16:56:56.748Z,39.15
2022-11-25T16:59:49.688Z,39.15
2022-11-25T17:02:42.172Z,39.21
2022-11-25T17:05:32.432Z,39.21
2022-11-25T17:08:22.394Z,39.23
2022-11-25T17:11:17.022Z,39.37
2022-11-25T17:14:14.208Z,39.45
2022-11-25T17:17:04.805Z,39.56
2022-11-25T17:19:55.581Z,39.57
2022-11-25T17:22:45.766Z,39.51
2022-11-25T17:25:37.316Z,39.49
2022-11-25T17:28:27.373Z,39.50
2022-11-25T17:31:17.053Z,39.55
2022-11-25T17:34:06.902Z,39.62
2022-11-25T17:36:58.092Z,39.80
2022-11-25T17:39:48.494Z,39.76
2022-11-25T17:42:38.805Z,39.87
2022-11-25T17:45:29.775Z,40.12
2022-11-25T17:48:20.722Z,40.21
2022-11-25T17:51:11.266Z,40.43
2022-11-25T17:54:01.218Z,40.49
2022-11-25T17:56:52.660Z,40.49
2022-11-25T17:59:42.595Z,40.71
2022-11-25T18:02:32.896Z,40.70
2022-11-25T18:05:25.133Z,40.80
2022-11-25T18:08:15.464Z,41.08
2022-11-25T18:11:08.004Z,41.01
2022-11-25T18:13:58.112Z,40.99
2022-11-25T18:16:48.717Z,40.92
2022-11-25T18:19:38.868Z,40.85
2022-11-25T18:22:30.646Z,40.83
2022-11-25T18:25:22.827Z,41.08
2022-11-25T18:28:17.784Z,40.89
2022-11-25T18:31:08.720Z,40.82
2022-11-25T18:33:58.991Z,40.88
2022-11-25T18:36:49.149Z,40.66
2022-11-25T18:39:39.418Z,40.63
2022-11-25T18:42:30.631Z,40.86
2022-11-25T18:45:23.504Z,41.10
2022-11-25T18:48:17.659Z,41.20
2022-11-25T18:51:07.790Z,40.82
2022-11-25T18:53:57.914Z,41.09
2022-11-25T18:56:51.360Z,44.99
2022-11-25T18:59:43.761Z,46.13
2022-11-25T19:02:34.047Z,45.54
2022-11-25T19:05:26.367Z,46.46
2022-11-25T19:08:16.833Z,45.88
2022-11-25T19:11:07.494Z,46.84
2022-11-25T19:14:02.801Z,45.27
2022-11-25T19:16:53.428Z,45.92
2022-11-25T19:19:43.576Z,45.30
2022-11-25T19:22:33.418Z,45.92
2022-11-25T19:25:24.234Z,45.60
2022-11-25T19:28:16.280Z,45.09
2022-11-25T19:31:07.191Z,44.35
2022-11-25T19:33:57.235Z,45.21
2022-11-25T19:36:48.206Z,42.59
2022-11-25T19:39:39.378Z,41.34
2022-11-25T19:42:31.830Z,41.26
2022-11-25T19:45:23.632Z,41.31
2022-11-25T19:48:18.610Z,41.30
2022-11-25T19:51:10.500Z,41.24
2022-11-25T19:54:00.967Z,40.97
2022-11-25T19:56:52.744Z,41.25
2022-11-25T19:59:43.457Z,41.23
2022-11-25T20:02:34.227Z,41.24
2022-11-25T20:05:29.376Z,41.21
2022-11-25T20:08:23.410Z,41.25
2022-11-25T20:11:15.698Z,41.18
2022-11-25T20:14:07.067Z,41.16
2022-11-25T20:16:57.376Z,41.07
2022-11-25T20:19:47.911Z,41.26
2022-11-25T20:22:41.548Z,41.50
2022-11-25T20:25:32.579Z,41.61
2022-11-25T20:28:24.601Z,41.61
2022-11-25T20:31:16.037Z,41.54
2022-11-25T20:34:06.384Z,41.63
2022-11-25T20:36:56.286Z,41.75
2022-11-25T20:39:47.199Z,41.84
2022-11-25T20:42:38.167Z,41.75
2022-11-25T20:45:28.464Z,42.12
2022-11-25T20:48:19.464Z,41.97
2022-11-25T20:51:18.698Z,41.78
2022-11-25T20:54:14.494Z,41.96
2022-11-25T20:57:04.563Z,42.06
2022-11-25T20:59:54.784Z,42.31
2022-11-25T21:02:45.093Z,42.17
2022-11-25T21:05:35.150Z,42.17
2022-11-25T21:08:29.133Z,42.42
2022-11-25T21:11:20.346Z,42.27
2022-11-25T21:14:15.690Z,42.27
2022-11-25T21:17:06.184Z,42.43
2022-11-25T21:19:56.156Z,42.45
2022-11-25T21:22:49.947Z,42.42
2022-11-25T21:25:40.259Z,42.58
2022-11-25T21:28:30.701Z,42.51
2022-11-25T21:31:23.633Z,42.65
2022-11-25T21:34:15.393Z,42.74
2022-11-25T21:37:06.499Z,42.72
2022-11-25T21:39:57.355Z,42.51
2022-11-25T21:42:47.905Z,42.25
2022-11-25T21:45:38.085Z,42.25
2022-11-25T21:48:29.945Z,42.10
2022-11-25T21:51:24.544Z,42.12
2022-11-25T21:54:14.629Z,42.17
2022-11-25T21:57:04.594Z,42.37
2022-11-25T21:59:55.537Z,42.07
2022-11-25T22:02:45.753Z,42.06
2022-11-25T22:05:35.513Z,41.90
2022-11-25T22:08:25.838Z,41.77
2022-11-25T22:11:19.310Z,41.72
2022-11-25T22:14:14.590Z,41.96
2022-11-25T22:17:08.235Z,41.87
2022-11-25T22:19:59.602Z,41.97
2022-11-25T22:22:49.973Z,41.69
2022-11-25T22:25:40.645Z,41.57
2022-11-25T22:28:31.819Z,41.53
2022-11-25T22:31:23.570Z,42.11
2022-11-25T22:34:19.970Z,41.98
2022-11-25T22:37:18.239Z,41.96
2022-11-25T22:40:10.044Z,41.93
2022-11-25T22:43:00.928Z,41.96
2022-11-25T22:45:50.877Z,42.16
2022-11-25T22:48:41.580Z,41.81
2022-11-25T22:51:32.062Z,42.02
2022-11-25T22:54:23.413Z,42.02
2022-11-25T22:57:13.765Z,41.76
2022-11-25T23:00:05.437Z,41.69
2022-11-25T23:02:59.186Z,41.72
2022-11-25T23:05:51.058Z,41.65
2022-11-25T23:08:41.653Z,41.67
2022-11-25T23:11:35.730Z,41.85
2022-11-25T23:14:28.663Z,41.40
2022-11-25T23:17:23.851Z,41.26
2022-11-25T23:20:20.705Z,41.28
2022-11-25T23:23:16.359Z,40.99
2022-11-25T23:26:07.746Z,40.86
2022-11-25T23:28:58.384Z,41.03
2022-11-25T23:31:48.218Z,41.37
2022-11-25T23:34:37.876Z,41.29
2022-11-25T23:37:29.004Z,41.20
2022-11-25T23:40:23.895Z,41.17
2022-11-25T23:43:16.901Z,40.92
2022-11-25T23:46:07.653Z,40.82
2022-11-25T23:49:00.808Z,40.85
2022-11-25T23:51:51.353Z,40.89
2022-11-25T23:54:43.909Z,40.81
2022-11-25T23:57:35.995Z,40.40
